createdAt,value
2017-11-22T00:00:47.548Z,98149.59
2017-11-22T00:03:15.047Z,98150.38
2017-11-22T00:05:42.521Z,98149.11
2017-11-22T00:08:09.979Z,98148.05
2017-11-22T00:10:37.434Z,98150.20
2017-11-22T00:13:04.931Z,98145.32
2017-11-22T00:15:32.391Z,98144.95
2017-11-22T00:18:00.267Z,98143.41
2017-11-22T00:20:27.726Z,98138.25
2017-11-22T00:22:55.183Z,98141.73
2017-11-22T00:25:22.677Z,98142.93
2017-11-22T00:27:50.136Z,98136.56
2017-11-22T00:30:17.623Z,98136.73
2017-11-22T00:32:45.088Z,98138.23
2017-11-22T00:35:12.551Z,98133.97
2017-11-22T00:37:40.034Z,98132.09
2017-11-22T00:40:07.499Z,98137.45
2017-11-22T00:42:34.985Z,98135.78
2017-11-22T00:45:02.467Z,98138.83
2017-11-22T00:47:29.954Z,98135.38
2017-11-22T00:49:57.441Z,98134.98
2017-11-22T00:52:24.924Z,98140.05
2017-11-22T00:54:52.412Z,98138.88
2017-11-22T00:57:19.894Z,98140.38
2017-11-22T00:59:47.349Z,98146.63
2017-11-22T01:02:14.814Z,98139.48
2017-11-22T01:04:42.301Z,98140.61
2017-11-22T01:07:09.780Z,98137.41
2017-11-22T01:09:37.252Z,98143.78
2017-11-22T01:12:04.713Z,98143.89
2017-11-22T01:14:32.223Z,98156.25
2017-11-22T01:16:59.688Z,98147.63
2017-11-22T01:19:27.178Z,98147.48
2017-11-22T01:21:54.648Z,98146.12
2017-11-22T01:24:22.162Z,98152.31
2017-11-22T01:26:49.637Z,98155.63
2017-11-22T01:29:17.103Z,98154.27
2017-11-22T01:31:44.594Z,98161.32
2017-11-22T01:34:12.068Z,98159.17
2017-11-22T01:36:39.554Z,98167.12
2017-11-22T01:39:07.372Z,98164.56
2017-11-22T01:41:34.842Z,98162.87
2017-11-22T01:44:02.298Z,98155.63
2017-11-22T01:46:29.781Z,98150.63
2017-11-22T01:48:57.241Z,98152.06
2017-11-22T01:51:24.720Z,98152.55
2017-11-22T01:53:52.181Z,98161.81
2017-11-22T01:56:19.665Z,98166.47
2017-11-22T01:58:47.114Z,98166.59
2017-11-22T02:01:14.594Z,98159.87
2017-11-22T02:03:42.049Z,98159.33
2017-11-22T02:06:09.528Z,98156.53
2017-11-22T02:08:37.015Z,98159.45
2017-11-22T02:11:04.502Z,98158.00
2017-11-22T02:13:31.988Z,98156.27
2017-11-22T02:15:59.442Z,98144.76
2017-11-22T02:18:26.922Z,98145.50
2017-11-22T02:20:54.407Z,98144.17
2017-11-22T02:23:21.871Z,98139.64
2017-11-22T02:25:49.348Z,98143.34
2017-11-22T02:28:16.805Z,98138.03
2017-11-22T02:30:44.270Z,98144.09
2017-11-22T02:33:11.750Z,98142.00
2017-11-22T02:35:39.213Z,98139.78
2017-11-22T02:38:06.699Z,98137.41
2017-11-22T02:40:34.165Z,98128.08
2017-11-22T02:43:01.684Z,98126.92
2017-11-22T02:45:29.147Z,98128.21
2017-11-22T02:47:56.606Z,98126.89
2017-11-22T02:50:24.082Z,98133.16
2017-11-22T02:52:51.563Z,98133.30
2017-11-22T02:55:19.042Z,98134.07
2017-11-22T02:57:46.499Z,98123.99
2017-11-22T03:00:13.983Z,98125.01
2017-11-22T03:02:41.447Z,98127.04
2017-11-22T03:05:08.927Z,98122.88
2017-11-22T03:07:36.388Z,98129.03
2017-11-22T03:10:03.898Z,98134.34
2017-11-22T03:12:31.353Z,98128.50
2017-11-22T03:14:58.808Z,98132.61
2017-11-22T03:17:26.298Z,98131.88
2017-11-22T03:19:53.756Z,98137.23
2017-11-22T03:22:21.240Z,98144.30
2017-11-22T03:24:48.699Z,98146.58
2017-11-22T03:27:16.184Z,98144.41
2017-11-22T03:29:43.655Z,98152.76
2017-11-22T03:32:11.130Z,98148.11
2017-11-22T03:34:38.609Z,98145.44
2017-11-22T03:37:06.075Z,98147.88
2017-11-22T03:39:33.559Z,98141.49
2017-11-22T03:42:01.031Z,98137.14
2017-11-22T03:44:28.502Z,98143.53
2017-11-22T03:46:55.999Z,98142.59
2017-11-22T03:49:23.483Z,98141.98
2017-11-22T03:51:56.539Z,98140.84
2017-11-22T03:54:24.002Z,98145.29
2017-11-22T03:56:51.524Z,98149.05
2017-11-22T03:59:19.015Z,98148.20
2017-11-22T04:01:46.474Z,98155.19
2017-11-22T04:04:16.245Z,98139.34
2017-11-22T04:06:43.719Z,98152.48
2017-11-22T04:09:11.193Z,98149.34
2017-11-22T04:11:38.670Z,98150.56
2017-11-22T04:14:06.154Z,98161.17
2017-11-22T04:16:33.619Z,98155.73
2017-11-22T04:19:06.719Z,98149.11
2017-11-22T04:21:34.209Z,98144.55
2017-11-22T04:24:01.671Z,98146.95
2017-11-22T04:26:29.160Z,98143.30
2017-11-22T04:28:56.655Z,98146.22
2017-11-22T04:31:24.123Z,98148.52
2017-11-22T04:33:51.586Z,98142.95
2017-11-22T04:36:19.054Z,98153.11
2017-11-22T04:38:46.510Z,98153.95
2017-11-22T04:41:14.005Z,98149.92
2017-11-22T04:43:41.467Z,98149.02
2017-11-22T04:46:08.926Z,98149.87
2017-11-22T04:48:36.405Z,98151.91
2017-11-22T04:51:03.874Z,98158.14
2017-11-22T04:53:31.761Z,98150.08
2017-11-22T04:55:59.235Z,98154.70
2017-11-22T04:58:26.693Z,98151.59
2017-11-22T05:00:54.173Z,98149.37
2017-11-22T05:03:21.639Z,98149.81
2017-11-22T05:05:49.469Z,98146.12
2017-11-22T05:08:16.945Z,98149.79
2017-11-22T05:10:44.437Z,98154.44
2017-11-22T05:13:11.906Z,98146.64
2017-11-22T05:15:39.397Z,98144.34
2017-11-22T05:18:06.854Z,98144.91
2017-11-22T05:20:34.335Z,98140.67
2017-11-22T05:23:02.196Z,98136.75
2017-11-22T05:25:29.666Z,98144.95
2017-11-22T05:27:57.122Z,98146.83
2017-11-22T05:30:24.627Z,98146.59
2017-11-22T05:32:52.098Z,98148.34
2017-11-22T05:35:19.562Z,98154.36
2017-11-22T05:37:47.040Z,98155.07
2017-11-22T05:40:14.521Z,98151.55
2017-11-22T05:42:41.983Z,98151.17
2017-11-22T05:45:09.475Z,98150.09
2017-11-22T05:47:36.931Z,98154.87
2017-11-22T05:50:04.410Z,98146.30
2017-11-22T05:52:31.879Z,98141.27
2017-11-22T05:54:59.360Z,98142.80
2017-11-22T05:57:26.826Z,98147.64
2017-11-22T05:59:54.303Z,98153.62
2017-11-22T06:02:21.764Z,98153.44
2017-11-22T06:04:49.253Z,98156.30
2017-11-22T06:07:16.706Z,98156.99
2017-11-22T06:09:44.192Z,98157.19
2017-11-22T06:12:11.649Z,98161.80
2017-11-22T06:14:39.158Z,98165.39
2017-11-22T06:17:06.614Z,98168.14
2017-11-22T06:19:34.075Z,98170.22
2017-11-22T06:22:01.582Z,98175.69
2017-11-22T06:24:29.035Z,98173.58
2017-11-22T06:26:56.503Z,98178.70
2017-11-22T06:29:23.987Z,98176.86
2017-11-22T06:31:51.615Z,98184.16
2017-11-22T06:34:19.088Z,98180.67
2017-11-22T06:36:46.567Z,98181.44
2017-11-22T06:39:15.778Z,98177.56
2017-11-22T06:41:43.244Z,98179.72
2017-11-22T06:44:11.036Z,98182.53
2017-11-22T06:46:38.515Z,98184.36
2017-11-22T06:49:05.975Z,98186.48
2017-11-22T06:51:33.463Z,98183.52
2017-11-22T06:54:00.928Z,98192.25
2017-11-22T06:56:28.414Z,98186.86
2017-11-22T06:58:55.879Z,98183.86
2017-11-22T07:01:23.349Z,98191.74
2017-11-22T07:03:55.722Z,98193.08
2017-11-22T07:06:23.189Z,98194.14
2017-11-22T07:08:50.839Z,98190.22
2017-11-22T07:11:18.302Z,98190.91
2017-11-22T07:13:45.762Z,98198.53
2017-11-22T07:16:18.871Z,98191.11
2017-11-22T07:18:46.353Z,98189.71
2017-11-22T07:21:13.852Z,98184.55
2017-11-22T07:23:41.349Z,98186.95
2017-11-22T07:26:08.805Z,98181.23
2017-11-22T07:28:36.264Z,98178.66
2017-11-22T07:31:03.750Z,98181.47
2017-11-22T07:33:31.219Z,98181.17
2017-11-22T07:36:04.169Z,98173.67
2017-11-22T07:38:31.625Z,98173.89
2017-11-22T07:40:59.086Z,98172.02
2017-11-22T07:43:26.570Z,98170.55
2017-11-22T07:45:54.032Z,98180.58
2017-11-22T07:48:21.512Z,98179.08
2017-11-22T07:50:48.979Z,98182.42
2017-11-22T07:53:16.475Z,98179.52
2017-11-22T07:55:43.952Z,98183.00
2017-11-22T07:58:11.455Z,98183.89
2017-11-22T08:00:38.931Z,98180.98
2017-11-22T08:03:09.267Z,98180.01
2017-11-22T08:05:36.771Z,98180.15
2017-11-22T08:08:04.250Z,98179.27
2017-11-22T08:10:31.713Z,98178.09
2017-11-22T08:12:59.202Z,98176.72
2017-11-22T08:15:26.694Z,98177.41
2017-11-22T08:17:54.164Z,98178.64
2017-11-22T08:20:21.647Z,98174.94
2017-11-22T08:22:49.114Z,98178.63
2017-11-22T08:25:17.424Z,98183.84
2017-11-22T08:27:44.903Z,98182.91
2017-11-22T08:30:12.377Z,98178.36
2017-11-22T08:32:39.862Z,98183.41
2017-11-22T08:35:07.335Z,98188.30
2017-11-22T08:37:34.797Z,98181.03
2017-11-22T08:40:02.280Z,98178.77
2017-11-22T08:42:30.547Z,98182.88
2017-11-22T08:44:58.030Z,98191.90
2017-11-22T08:47:25.487Z,98188.56
2017-11-22T08:49:52.991Z,98188.34
2017-11-22T08:52:20.455Z,98189.18
2017-11-22T08:54:53.541Z,98189.52
2017-11-22T08:57:26.547Z,98192.20
2017-11-22T08:59:59.664Z,98194.05
2017-11-22T09:02:27.122Z,98199.83
2017-11-22T09:04:54.585Z,98200.39
2017-11-22T09:07:24.871Z,98191.25
2017-11-22T09:09:52.355Z,98185.92
2017-11-22T09:12:25.223Z,98182.50
2017-11-22T09:14:54.565Z,98181.38
2017-11-22T09:17:22.046Z,98177.77
2017-11-22T09:19:49.530Z,98183.41
2017-11-22T09:22:16.998Z,98182.98
2017-11-22T09:24:49.982Z,98180.50
2017-11-22T09:27:23.100Z,98173.31
2017-11-22T09:29:56.174Z,98175.32
2017-11-22T09:32:28.995Z,98171.69
2017-11-22T09:35:02.123Z,98181.64
2017-11-22T09:37:31.384Z,98176.75
2017-11-22T09:39:58.878Z,98176.56
2017-11-22T09:42:26.350Z,98185.05
2017-11-22T09:44:53.807Z,98181.56
2017-11-22T09:47:21.310Z,98186.26
2017-11-22T09:49:48.763Z,98191.34
2017-11-22T09:52:16.226Z,98194.52
2017-11-22T09:54:43.703Z,98192.31
2017-11-22T09:57:11.199Z,98183.30
2017-11-22T09:59:38.674Z,98179.78
2017-11-22T10:02:06.163Z,98179.66
2017-11-22T10:04:33.634Z,98185.96
2017-11-22T10:07:01.116Z,98193.31
2017-11-22T10:09:28.599Z,98193.59
2017-11-22T10:11:56.070Z,98198.38
2017-11-22T10:14:23.526Z,98191.55
2017-11-22T10:16:56.515Z,98195.52
2017-11-22T10:19:23.997Z,98189.73
2017-11-22T10:21:57.099Z,98189.95
2017-11-22T10:24:30.202Z,98189.62
2017-11-22T10:26:57.687Z,98188.44
2017-11-22T10:29:25.172Z,98178.59
2017-11-22T10:31:58.006Z,98186.77
2017-11-22T10:34:25.463Z,98181.69
2017-11-22T10:36:52.967Z,98186.87
2017-11-22T10:39:20.430Z,98184.73
2017-11-22T10:41:48.059Z,98187.17
2017-11-22T10:44:15.555Z,98174.58
2017-11-22T10:46:43.035Z,98170.17
2017-11-22T10:49:10.515Z,98171.30
2017-11-22T10:51:37.977Z,98169.98
2017-11-22T10:54:05.458Z,98164.36
2017-11-22T10:56:32.943Z,98166.63
2017-11-22T10:59:00.425Z,98168.00
2017-11-22T11:01:27.889Z,98159.86
2017-11-22T11:03:55.367Z,98155.20
2017-11-22T11:06:22.819Z,98159.85
2017-11-22T11:08:50.298Z,98167.50
2017-11-22T11:11:17.786Z,98159.19
2017-11-22T11:13:45.248Z,98157.59
2017-11-22T11:16:12.733Z,98154.54
2017-11-22T11:18:40.213Z,98149.26
2017-11-22T11:21:07.673Z,98156.48
2017-11-22T11:23:35.157Z,98151.89
2017-11-22T11:26:02.813Z,98150.67
2017-11-22T11:28:30.295Z,98136.97
2017-11-22T11:30:57.744Z,98123.40
2017-11-22T11:33:25.222Z,98120.19
2017-11-22T11:38:52.590Z,98128.98
2017-11-22T11:41:20.066Z,98129.08
2017-11-22T11:43:47.542Z,98128.86
2017-11-22T11:46:15.002Z,98123.86
2017-11-22T11:48:42.482Z,98127.16
2017-11-22T11:51:09.952Z,98120.70
2017-11-22T11:53:37.456Z,98120.57
2017-11-22T11:56:06.122Z,98116.55
2017-11-22T11:58:33.565Z,98128.19
2017-11-22T12:01:01.055Z,98123.92
2017-11-22T12:03:28.516Z,98122.44
2017-11-22T12:05:55.995Z,98127.09
2017-11-22T12:08:23.441Z,98126.80
2017-11-22T12:10:50.910Z,98128.91
2017-11-22T12:13:18.415Z,98118.09
2017-11-22T12:15:45.887Z,98122.02
2017-11-22T12:18:13.365Z,98121.73
2017-11-22T12:20:40.866Z,98118.88
2017-11-22T12:23:13.854Z,98118.16
2017-11-22T12:25:41.353Z,98126.54
2017-11-22T12:28:08.823Z,98111.61
2017-11-22T12:30:36.295Z,98117.38
2017-11-22T12:33:03.749Z,98115.53
2017-11-22T12:35:31.197Z,98124.50
2017-11-22T12:37:58.660Z,98113.88
2017-11-22T12:40:26.116Z,98116.99
2017-11-22T12:42:53.578Z,98118.11
2017-11-22T12:45:21.046Z,98117.53
2017-11-22T12:47:48.499Z,98114.25
2017-11-22T12:50:15.980Z,98120.48
2017-11-22T12:52:43.471Z,98122.21
2017-11-22T12:55:10.931Z,98116.77
2017-11-22T12:57:43.907Z,98114.17
2017-11-22T13:00:11.353Z,98114.77
2017-11-22T13:02:38.806Z,98121.78
2017-11-22T13:05:06.299Z,98118.59
2017-11-22T13:07:33.751Z,98128.09
2017-11-22T13:10:01.215Z,98128.83
2017-11-22T13:12:28.692Z,98125.55
2017-11-22T13:14:56.147Z,98127.79
2017-11-22T13:17:23.612Z,98120.27
2017-11-22T13:19:51.115Z,98121.33
2017-11-22T13:22:18.586Z,98127.28
2017-11-22T13:24:46.041Z,98118.69
2017-11-22T13:27:21.197Z,98126.56
2017-11-22T13:29:48.681Z,98120.64
2017-11-22T13:32:20.961Z,98122.07
2017-11-22T13:34:48.424Z,98121.12
2017-11-22T13:37:15.902Z,98128.52
2017-11-22T13:39:43.358Z,98121.28
2017-11-22T13:42:10.850Z,98118.79
2017-11-22T13:44:38.321Z,98126.73
2017-11-22T13:47:05.799Z,98121.46
2017-11-22T13:49:33.277Z,98122.34
2017-11-22T13:52:00.749Z,98135.36
2017-11-22T13:54:28.256Z,98132.42
2017-11-22T13:56:55.927Z,98127.08
2017-11-22T13:59:23.415Z,98129.97
2017-11-22T14:01:50.936Z,98127.20
2017-11-22T14:04:18.403Z,98130.56
2017-11-22T14:06:45.890Z,98129.44
2017-11-22T14:09:13.379Z,98132.05
2017-11-22T14:11:40.844Z,98129.08
2017-11-22T14:14:08.342Z,98127.05
2017-11-22T14:16:35.808Z,98123.92
2017-11-22T14:19:03.403Z,98129.30
2017-11-22T14:21:30.857Z,98125.63
2017-11-22T14:23:58.355Z,98126.85
2017-11-22T14:26:25.807Z,98127.06
2017-11-22T14:28:53.281Z,98130.59
2017-11-22T14:31:20.747Z,98129.83
2017-11-22T14:33:48.240Z,98116.34
2017-11-22T14:36:15.696Z,98122.94
2017-11-22T14:38:43.202Z,98124.92
2017-11-22T14:41:11.006Z,98125.58
2017-11-22T14:43:38.499Z,98122.59
2017-11-22T14:46:05.943Z,98127.17
2017-11-22T14:48:33.419Z,98133.89
2017-11-22T14:51:00.912Z,98130.27
2017-11-22T14:53:28.396Z,98128.61
2017-11-22T14:55:55.911Z,98130.98
2017-11-22T14:58:23.435Z,98130.66
2017-11-22T15:00:51.023Z,98127.73
2017-11-22T15:03:18.479Z,98133.00
2017-11-22T15:05:45.960Z,98124.59
2017-11-22T15:08:13.462Z,98127.13
2017-11-22T15:10:40.939Z,98124.33
2017-11-22T15:13:08.423Z,98134.20
2017-11-22T15:15:35.895Z,98136.86
2017-11-22T15:18:03.381Z,98136.52
2017-11-22T15:20:30.867Z,98136.45
2017-11-22T15:22:58.314Z,98136.69
2017-11-22T15:25:25.797Z,98132.47
2017-11-22T15:27:53.293Z,98132.20
2017-11-22T15:30:20.808Z,98135.47
2017-11-22T15:32:48.294Z,98136.56
2017-11-22T15:35:15.776Z,98130.17
2017-11-22T15:37:43.259Z,98132.41
2017-11-22T15:40:10.761Z,98127.36
2017-11-22T15:42:38.251Z,98132.98
2017-11-22T15:45:05.711Z,98137.60
2017-11-22T15:47:33.294Z,98130.46
2017-11-22T15:50:00.760Z,98132.53
2017-11-22T15:52:28.225Z,98135.30
2017-11-22T15:54:55.723Z,98131.70
2017-11-22T15:57:23.189Z,98136.99
2017-11-22T15:59:50.673Z,98134.31
2017-11-22T16:02:18.149Z,98133.39
2017-11-22T16:04:45.732Z,98141.09
2017-11-22T16:07:13.269Z,98140.66
2017-11-22T16:09:40.747Z,98141.72
2017-11-22T16:12:08.236Z,98136.19
2017-11-22T16:14:35.766Z,98141.59
2017-11-22T16:17:03.376Z,98131.48
2017-11-22T16:19:30.854Z,98135.31
2017-11-22T16:21:58.300Z,98133.73
2017-11-22T16:24:25.805Z,98130.62
2017-11-22T16:26:53.253Z,98131.81
2017-11-22T16:29:20.727Z,98120.75
2017-11-22T16:31:48.208Z,98122.86
2017-11-22T16:34:15.666Z,98127.66
2017-11-22T16:36:43.170Z,98128.84
2017-11-22T16:39:10.627Z,98129.48
2017-11-22T16:41:38.323Z,98131.05
2017-11-22T16:44:05.812Z,98132.22
2017-11-22T16:46:33.335Z,98132.74
2017-11-22T16:49:00.810Z,98133.17
2017-11-22T16:51:28.257Z,98133.39
2017-11-22T16:53:55.928Z,98143.38
2017-11-22T16:56:23.432Z,98130.23
2017-11-22T16:58:50.917Z,98130.00
2017-11-22T17:01:18.410Z,98129.01
2017-11-22T17:03:45.899Z,98135.67
2017-11-22T17:06:13.353Z,98141.13
2017-11-22T17:08:40.857Z,98134.75
2017-11-22T17:11:08.355Z,98142.06
2017-11-22T17:13:35.982Z,98134.94
2017-11-22T17:16:03.476Z,98133.86
2017-11-22T17:18:30.983Z,98136.34
2017-11-22T17:20:58.463Z,98137.48
2017-11-22T17:23:25.931Z,98136.50
2017-11-22T17:25:53.414Z,98127.86
2017-11-22T17:28:20.912Z,98131.83
2017-11-22T17:30:48.367Z,98132.11
2017-11-22T17:33:16.218Z,98126.82
2017-11-22T17:35:43.725Z,98123.31
2017-11-22T17:38:11.207Z,98133.67
2017-11-22T17:40:38.695Z,98126.98
2017-11-22T17:43:06.151Z,98123.31
2017-11-22T17:45:33.606Z,98128.66
2017-11-22T17:48:01.124Z,98135.33
2017-11-22T17:50:28.653Z,98137.34
2017-11-22T17:52:56.118Z,98128.41
2017-11-22T17:55:23.630Z,98128.83
2017-11-22T17:57:51.118Z,98130.45
2017-11-22T18:00:18.609Z,98125.81
2017-11-22T18:02:46.121Z,98132.68
2017-11-22T18:05:14.251Z,98127.95
2017-11-22T18:07:42.807Z,98125.17
2017-11-22T18:10:10.285Z,98123.91
2017-11-22T18:12:37.766Z,98120.55
2017-11-22T18:15:05.231Z,98118.23
2017-11-22T18:17:32.715Z,98123.30
2017-11-22T18:20:00.184Z,98124.43
2017-11-22T18:22:27.669Z,98120.89
2017-11-22T18:24:55.131Z,98123.80
2017-11-22T18:27:22.587Z,98116.91
2017-11-22T18:29:50.580Z,98120.16
2017-11-22T18:32:18.045Z,98108.88
2017-11-22T18:34:45.559Z,98106.59
2017-11-22T18:37:13.024Z,98101.19
2017-11-22T18:39:40.501Z,98098.53
2017-11-22T18:42:07.994Z,98099.41
2017-11-22T18:44:35.565Z,98097.88
2017-11-22T18:47:03.147Z,98102.63
2017-11-22T18:49:30.608Z,98099.42
2017-11-22T18:51:58.093Z,98108.91
2017-11-22T18:54:25.601Z,98100.59
2017-11-22T18:56:53.066Z,98096.89
2017-11-22T18:59:20.550Z,98098.59
2017-11-22T19:01:48.023Z,98095.67
2017-11-22T19:04:15.978Z,98099.56
2017-11-22T19:06:43.492Z,98096.55
2017-11-22T19:09:10.974Z,98097.61
2017-11-22T19:11:38.462Z,98095.86
2017-11-22T19:14:05.932Z,98095.03
2017-11-22T19:16:33.555Z,98094.14
2017-11-22T19:19:01.119Z,98090.39
2017-11-22T19:21:28.583Z,98087.30
2017-11-22T19:23:56.151Z,98088.53
2017-11-22T19:26:23.733Z,98086.49
2017-11-22T19:28:51.241Z,98084.80
2017-11-22T19:31:18.734Z,98081.02
2017-11-22T19:33:58.158Z,98076.19
2017-11-22T19:36:25.659Z,98075.84
2017-11-22T19:38:53.322Z,98071.89
2017-11-22T19:41:21.027Z,98074.44
2017-11-22T19:43:48.550Z,98069.59
2017-11-22T19:46:16.011Z,98073.41
2017-11-22T19:48:43.535Z,98076.14
2017-11-22T19:51:11.187Z,98074.72
2017-11-22T19:53:38.938Z,98077.63
2017-11-22T19:56:06.464Z,98074.59
2017-11-22T19:58:33.980Z,98074.73
2017-11-22T20:01:01.630Z,98084.50
2017-11-22T20:03:29.101Z,98083.30
2017-11-22T20:05:56.592Z,98081.41
2017-11-22T20:08:35.939Z,98088.41
2017-11-22T20:11:03.419Z,98076.04
2017-11-22T20:13:30.897Z,98084.31
2017-11-22T20:15:58.430Z,98082.77
2017-11-22T20:18:25.914Z,98082.02
2017-11-22T20:20:53.585Z,98085.17
2017-11-22T20:23:21.122Z,98086.45
2017-11-22T20:25:48.646Z,98085.35
2017-11-22T20:28:16.137Z,98086.35
2017-11-22T20:30:43.603Z,98087.85
2017-11-22T20:33:11.138Z,98084.55
2017-11-22T20:35:38.629Z,98082.10
2017-11-22T20:38:06.124Z,98076.89
2017-11-22T20:40:33.591Z,98090.03
2017-11-22T20:43:01.074Z,98090.76
2017-11-22T20:45:28.563Z,98096.82
2017-11-22T20:47:56.082Z,98090.55
2017-11-22T20:50:23.571Z,98087.52
2017-11-22T20:52:51.042Z,98085.73
2017-11-22T20:55:18.499Z,98075.85
2017-11-22T20:57:46.020Z,98079.39
2017-11-22T21:00:13.577Z,98068.78
2017-11-22T21:02:41.152Z,98074.63
2017-11-22T21:05:08.658Z,98072.55
2017-11-22T21:07:36.112Z,98074.56
2017-11-22T21:10:03.725Z,98076.02
2017-11-22T21:12:31.240Z,98076.52
2017-11-22T21:14:58.746Z,98086.42
2017-11-22T21:17:26.202Z,98086.74
2017-11-22T21:19:53.663Z,98093.72
2017-11-22T21:22:21.433Z,98094.88
2017-11-22T21:24:49.096Z,98097.10
2017-11-22T21:27:16.896Z,98094.02
2017-11-22T21:29:44.358Z,98096.41
2017-11-22T21:32:11.822Z,98094.48
2017-11-22T21:34:39.304Z,98093.08
2017-11-22T21:37:06.792Z,98082.20
2017-11-22T21:39:34.509Z,98086.21
2017-11-22T21:42:01.997Z,98084.91
2017-11-22T21:44:29.455Z,98079.94
2017-11-22T21:46:56.934Z,98079.47
2017-11-22T21:49:24.402Z,98076.59
2017-11-22T21:51:51.882Z,98076.17
2017-11-22T21:54:19.338Z,98079.13
2017-11-22T21:56:46.827Z,98078.28
2017-11-22T21:59:14.318Z,98076.56
2017-11-22T22:01:41.781Z,98076.45
2017-11-22T22:04:09.259Z,98073.75
2017-11-22T22:06:36.735Z,98073.19
2017-11-22T22:09:04.211Z,98069.31
2017-11-22T22:11:31.711Z,98065.55
2017-11-22T22:13:59.321Z,98064.25
2017-11-22T22:16:26.779Z,98057.98
2017-11-22T22:18:54.253Z,98065.70
2017-11-22T22:21:21.738Z,98063.63
2017-11-22T22:23:49.217Z,98059.94
2017-11-22T22:26:16.677Z,98064.59
2017-11-22T22:28:44.162Z,98061.75
2017-11-22T22:31:11.620Z,98057.16
2017-11-22T22:33:39.079Z,98051.05
2017-11-22T22:36:06.563Z,98060.02
2017-11-22T22:38:34.026Z,98063.31
2017-11-22T22:41:01.602Z,98059.02
2017-11-22T22:43:29.064Z,98058.27
2017-11-22T22:45:56.532Z,98059.47
2017-11-22T22:48:24.017Z,98057.80
2017-11-22T22:50:51.485Z,98057.63
2017-11-22T22:53:18.972Z,98061.63
2017-11-22T22:55:46.426Z,98058.92
2017-11-22T22:58:13.886Z,98065.33
2017-11-22T23:00:41.380Z,98072.19
2017-11-22T23:03:08.843Z,98071.63
2017-11-22T23:05:36.349Z,98074.30
2017-11-22T23:08:03.814Z,98080.05
2017-11-22T23:13:04.080Z,98072.53
2017-11-22T23:15:31.524Z,98076.03
2017-11-22T23:17:59.039Z,98068.73
2017-11-22T23:20:26.534Z,98066.23
2017-11-22T23:22:54.049Z,98064.59
2017-11-22T23:25:21.513Z,98056.47
2017-11-22T23:27:48.966Z,98060.88
2017-11-22T23:30:16.493Z,98061.41
2017-11-22T23:32:43.938Z,98059.36
2017-11-22T23:35:11.413Z,98060.23
2017-11-22T23:37:38.860Z,98061.89
2017-11-22T23:40:06.337Z,98060.32
2017-11-22T23:42:33.803Z,98057.36
2017-11-22T23:45:01.262Z,98058.09
2017-11-22T23:47:28.761Z,98057.43
2017-11-22T23:49:56.229Z,98057.61
2017-11-22T23:52:23.717Z,98057.19
2017-11-22T23:54:51.208Z,98054.54
2017-11-22T23:57:18.682Z,98058.13
2017-11-22T23:59:46.182Z,98051.92
